Time;durP1;ratioP1;P1;durP2;ratioP2;P2;SDS_P1;SDS_P2;PMS_P1;PMS_P2;Temp;Humidity;BMP_temperature;BMP_pressure;BME280_temperature;BME280_humidity;BME280_pressure;Samples;Min_cycle;Max_cycle;Signal;HPM_P1;HPM_P2
2022/08/01 00:01:51;;;;;;;1999.90;999.90;;;17.50;82.40;;;;;;5032069;28;20465;-79
2022/08/01 00:04:17;;;;;;;1999.90;999.90;;;17.50;82.90;;;;;;5029146;28;20103;-79
2022/08/01 00:06:43;;;;;;;1999.90;999.90;;;17.30;85.30;;;;;;5029644;28;20520;-79
2022/08/01 00:09:08;;;;;;;1999.90;999.90;;;17.20;86.80;;;;;;5035051;28;20091;-82
2022/08/01 00:11:34;;;;;;;1999.90;999.90;;;17.10;89.40;;;;;;5030371;28;20114;-80
2022/08/01 00:13:59;;;;;;;1999.90;999.90;;;17.00;91.00;;;;;;5024312;28;20440;-78
2022/08/01 00:16:25;;;;;;;1999.90;999.90;;;16.90;91.70;;;;;;5029743;28;20481;-79
2022/08/01 00:18:51;;;;;;;1999.90;999.90;;;16.80;92.90;;;;;;5040165;28;20044;-79
2022/08/01 00:21:17;;;;;;;1999.90;999.90;;;16.60;93.90;;;;;;5033228;28;20092;-80
2022/08/01 00:23:45;;;;;;;1999.90;999.90;;;16.60;94.40;;;;;;5033277;28;20029;-80
2022/08/01 00:26:14;;;;;;;1999.90;999.33;;;16.60;94.20;;;;;;5042710;28;20038;-79
2022/08/01 00:28:40;;;;;;;1999.90;999.90;;;16.50;94.80;;;;;;5039956;28;20044;-79
2022/08/01 00:31:06;;;;;;;1999.90;997.35;;;16.50;94.90;;;;;;5036842;28;20134;-80
2022/08/01 00:33:32;;;;;;;1999.90;982.80;;;16.40;95.30;;;;;;5039701;28;20078;-80
2022/08/01 00:35:57;;;;;;;1999.90;968.33;;;16.50;95.50;;;;;;5032543;28;20026;-80
2022/08/01 00:38:23;;;;;;;1999.90;995.97;;;16.40;95.20;;;;;;5024959;28;20037;-79
2022/08/01 00:40:49;;;;;;;1999.90;975.88;;;16.40;96.50;;;;;;5024485;28;20036;-82
2022/08/01 00:43:15;;;;;;;1999.90;968.75;;;16.40;96.40;;;;;;5034005;28;20040;-80
2022/08/01 00:45:41;;;;;;;1999.90;972.67;;;16.40;96.30;;;;;;5032467;28;20025;-80
2022/08/01 00:48:06;;;;;;;1999.90;934.10;;;16.40;96.40;;;;;;5033401;28;20029;-79
2022/08/01 00:50:33;;;;;;;1999.90;914.92;;;16.30;95.90;;;;;;5037930;28;20037;-79
2022/08/01 00:52:59;;;;;;;1999.90;927.33;;;16.30;96.50;;;;;;5031425;28;20032;-80
2022/08/01 00:55:29;;;;;;;1999.90;914.08;;;16.30;96.30;;;;;;5018428;28;20025;-80
2022/08/01 00:57:55;;;;;;;1999.90;933.00;;;16.30;96.60;;;;;;5032120;28;20110;-80
2022/08/01 01:00:22;;;;;;;1999.90;885.72;;;16.20;97.80;;;;;;5037504;28;20037;-79
2022/08/01 01:02:48;;;;;;;1999.90;885.50;;;16.10;97.90;;;;;;5028368;28;20056;-80
2022/08/01 01:05:13;;;;;;;1999.90;840.10;;;16.00;99.10;;;;;;5028996;28;20025;-83
2022/08/01 01:08:01;;;;;;;1999.90;905.88;;;15.90;99.90;;;;;;5025507;28;20712;-79
2022/08/01 01:10:49;;;;;;;1999.90;806.67;;;15.90;99.90;;;;;;5023105;28;20110;-78
2022/08/01 01:13:31;;;;;;;1999.90;774.38;;;15.90;99.90;;;;;;5029468;28;20037;-79
2022/08/01 01:16:04;;;;;;;1999.90;789.25;;;15.80;99.90;;;;;;5020953;28;20030;-78
2022/08/01 01:18:38;;;;;;;1999.90;793.00;;;15.80;99.90;;;;;;5031714;28;20032;-79
2022/08/01 01:21:17;;;;;;;1999.90;719.78;;;15.80;99.90;;;;;;5036330;28;20033;-79
2022/08/01 01:24:01;;;;;;;1999.90;795.38;;;15.90;99.90;;;;;;5043248;28;20048;-79
2022/08/01 01:26:40;;;;;;;1999.90;791.50;;;16.10;99.90;;;;;;5035303;28;20035;-78
2022/08/01 01:29:18;;;;;;;1999.90;746.70;;;16.00;99.90;;;;;;5037334;28;20029;-78
2022/08/01 01:31:49;;;;;;;1999.90;805.00;;;16.00;99.90;;;;;;5032100;28;20087;-79
2022/08/01 01:34:18;;;;;;;1999.90;780.53;;;16.00;99.90;;;;;;5022594;28;20029;-79
2022/08/01 01:36:45;;;;;;;1999.90;787.20;;;15.90;99.90;;;;;;5018415;28;20096;-79
2022/08/01 01:39:13;;;;;;;1999.90;795.22;;;15.90;99.90;;;;;;5019611;28;20046;-78
2022/08/01 01:41:40;;;;;;;1999.90;747.47;;;15.80;99.90;;;;;;5025886;28;20033;-80
2022/08/01 01:44:07;;;;;;;1999.90;864.65;;;15.80;99.90;;;;;;5030157;28;20649;-78
2022/08/01 01:46:34;;;;;;;1999.90;824.25;;;15.70;99.90;;;;;;5035241;28;20091;-78
2022/08/01 01:49:00;;;;;;;1999.90;775.33;;;15.60;99.90;;;;;;5034940;28;20489;-79
2022/08/01 01:51:28;;;;;;;1999.90;773.58;;;15.60;99.90;;;;;;5026388;28;20037;-79
2022/08/01 01:53:55;;;;;;;1999.90;781.78;;;15.60;99.90;;;;;;5040795;28;20021;-79
2022/08/01 01:56:21;;;;;;;1999.90;793.53;;;15.60;99.90;;;;;;5036705;28;20029;-78
2022/08/01 01:58:54;;;;;;;1999.90;835.47;;;15.50;99.90;;;;;;5023369;28;20500;-78
2022/08/01 02:01:23;;;;;;;1986.22;749.95;;;15.50;99.90;;;;;;5032605;28;20061;-80
2022/08/01 02:03:51;;;;;;;1999.90;771.83;;;15.40;99.90;;;;;;5029881;28;20781;-79
2022/08/01 02:06:17;;;;;;;1999.90;840.53;;;15.40;99.90;;;;;;5032235;28;20057;-78
2022/08/01 02:08:44;;;;;;;1985.38;680.95;;;15.40;99.90;;;;;;5017746;28;20477;-78
2022/08/01 02:11:20;;;;;;;1999.90;839.92;;;15.30;99.90;;;;;;5023601;28;20515;-78
2022/08/01 02:14:08;;;;;;;1984.00;753.83;;;15.30;99.90;;;;;;5014300;28;20029;-78
2022/08/01 02:16:39;;;;;;;1999.90;824.90;;;15.30;99.90;;;;;;5027800;28;20029;-79
2022/08/01 02:19:05;;;;;;;1990.25;738.97;;;15.20;99.90;;;;;;5041872;28;20489;-79
2022/08/01 02:21:38;;;;;;;1999.90;774.67;;;15.10;99.90;;;;;;5027175;28;20124;-79
2022/08/01 02:24:14;;;;;;;1999.90;999.90;;;15.00;99.90;;;;;;5034709;28;20028;-78
2022/08/01 02:26:46;;;;;;;1935.65;683.25;;;15.00;99.90;;;;;;5040201;28;20146;-79
2022/08/01 02:29:16;;;;;;;1939.70;712.60;;;14.90;99.90;;;;;;5039531;28;20777;-79
2022/08/01 02:31:47;;;;;;;1971.85;815.70;;;15.00;99.90;;;;;;5037178;28;20047;-79
2022/08/01 02:34:17;;;;;;;1999.90;671.03;;;15.00;99.90;;;;;;5029780;28;20494;-78
2022/08/01 02:36:44;;;;;;;;;;;15.00;99.90;;;;;;5027887;28;20026;-78
2022/08/01 02:39:13;;;;;;;1999.90;780.65;;;15.00;99.90;;;;;;5024631;28;19951;-78
2022/08/01 02:41:42;;;;;;;1874.93;770.75;;;15.00;99.90;;;;;;5027248;28;20754;-79
2022/08/01 02:44:11;;;;;;;1981.22;731.28;;;15.00;99.90;;;;;;5007862;28;20045;-78
2022/08/01 02:46:40;;;;;;;1964.00;544.88;;;15.00;99.90;;;;;;5026783;28;20057;-78
2022/08/01 02:49:09;;;;;;;1978.77;661.00;;;15.00;99.90;;;;;;5039056;28;20037;-79
2022/08/01 02:51:36;;;;;;;1999.90;673.70;;;15.00;99.90;;;;;;5023255;28;20036;-78
2022/08/01 02:54:06;;;;;;;1981.65;613.00;;;15.10;99.90;;;;;;5044239;28;20029;-79
2022/08/01 02:56:36;;;;;;;1999.90;733.60;;;15.20;99.90;;;;;;5032949;28;20017;-78
2022/08/01 02:59:06;;;;;;;1999.90;698.80;;;15.20;99.90;;;;;;5033433;28;20044;-79
2022/08/01 03:01:34;;;;;;;1999.90;604.25;;;15.20;99.90;;;;;;5025822;28;20078;-79
2022/08/01 03:03:59;;;;;;;1999.90;601.17;;;15.10;99.90;;;;;;5029591;28;20044;-78
2022/08/01 03:06:26;;;;;;;1889.07;568.92;;;15.00;99.90;;;;;;5032186;28;20025;-78
2022/08/01 03:08:53;;;;;;;1998.05;579.47;;;15.00;99.90;;;;;;5035146;28;20078;-80
2022/08/01 03:11:20;;;;;;;1999.90;710.38;;;14.90;99.90;;;;;;5026564;28;20040;-79
2022/08/01 03:13:48;;;;;;;1999.90;614.25;;;14.90;99.90;;;;;;5024291;28;20556;-79
2022/08/01 03:16:16;;;;;;;1999.90;610.20;;;14.90;99.90;;;;;;5024014;28;20044;-78
2022/08/01 03:18:44;;;;;;;1984.88;629.42;;;14.90;99.90;;;;;;5040181;28;20029;-78
2022/08/01 03:21:13;;;;;;;1999.18;719.90;;;14.70;99.90;;;;;;5024345;28;20057;-79
2022/08/01 03:23:40;;;;;;;1940.78;586.47;;;14.70;99.90;;;;;;5032719;28;20036;-81
2022/08/01 03:26:06;;;;;;;1999.90;999.90;;;14.50;99.90;;;;;;5032671;28;20040;-80
2022/08/01 03:28:32;;;;;;;1936.50;798.38;;;14.50;99.90;;;;;;5033594;28;20021;-81
2022/08/01 03:31:00;;;;;;;1900.88;664.17;;;14.50;99.90;;;;;;5028461;28;20037;-85
2022/08/01 03:33:26;;;;;;;1999.90;727.05;;;14.40;99.90;;;;;;5025974;28;20071;-80
2022/08/01 03:35:54;;;;;;;1791.10;515.78;;;14.50;99.90;;;;;;5026848;28;20030;-81
2022/08/01 03:38:25;;;;;;;1961.25;668.85;;;14.40;99.90;;;;;;5025509;28;20091;-81
2022/08/01 03:40:56;;;;;;;;;;;14.40;99.90;;;;;;5022549;28;20025;-88
2022/08/01 03:43:36;;;;;;;1912.25;854.20;;;14.40;99.90;;;;;;5032770;28;20028;-81
2022/08/01 03:46:09;;;;;;;1875.45;672.40;;;14.50;99.90;;;;;;5022444;28;20038;-80
2022/08/01 03:48:39;;;;;;;1985.85;623.92;;;14.40;99.90;;;;;;5041348;28;20416;-81
2022/08/01 03:51:07;;;;;;;1956.72;674.72;;;14.40;99.90;;;;;;5039375;28;20114;-80
2022/08/01 03:53:34;;;;;;;1883.63;593.67;;;14.50;99.90;;;;;;5044875;28;20025;-80
2022/08/01 03:56:02;;;;;;;1976.15;588.42;;;14.40;99.90;;;;;;5037891;28;20044;-77
2022/08/01 03:58:31;;;;;;;1951.47;584.10;;;14.40;99.90;;;;;;5029831;28;20049;-78
2022/08/01 04:00:57;;;;;;;1975.85;601.47;;;14.40;99.90;;;;;;5025885;28;20523;-81
2022/08/01 04:03:24;;;;;;;1999.90;585.47;;;14.40;99.90;;;;;;5034008;28;20045;-80
2022/08/01 04:05:50;;;;;;;1975.88;592.22;;;14.40;99.90;;;;;;5035961;28;20025;-79
2022/08/01 04:08:16;;;;;;;1998.18;595.53;;;14.40;99.90;;;;;;5036683;28;20087;-80
2022/08/01 04:10:41;;;;;;;1996.32;635.53;;;14.40;99.90;;;;;;5031628;28;20046;-84
2022/08/01 04:13:07;;;;;;;1998.97;611.10;;;14.50;99.90;;;;;;5032533;28;20755;-80
2022/08/01 04:15:33;;;;;;;1991.97;569.55;;;14.50;99.90;;;;;;5028650;28;20477;-80
2022/08/01 04:17:58;;;;;;;1999.90;602.97;;;14.50;99.90;;;;;;5039523;28;20435;-80
2022/08/01 04:20:24;;;;;;;1987.93;573.85;;;14.50;99.90;;;;;;5045449;28;20048;-79
2022/08/01 04:22:50;;;;;;;1992.20;591.17;;;14.60;99.90;;;;;;5037933;28;20409;-80
2022/08/01 04:25:21;;;;;;;1999.90;621.78;;;14.60;99.90;;;;;;5042036;28;20040;-80
2022/08/01 04:27:50;;;;;;;1999.90;611.22;;;14.70;99.90;;;;;;5041386;28;20038;-79
2022/08/01 04:30:19;;;;;;;1999.90;707.42;;;14.70;99.90;;;;;;5037439;28;20171;-79
2022/08/01 04:32:47;;;;;;;1999.90;543.67;;;14.80;99.90;;;;;;5029378;28;20024;-80
2022/08/01 04:35:16;;;;;;;1999.90;690.45;;;14.90;99.90;;;;;;5034764;28;21029;-80
2022/08/01 04:37:44;;;;;;;1999.90;728.08;;;15.00;99.90;;;;;;5030534;28;20034;-79
2022/08/01 04:40:11;;;;;;;1999.90;589.40;;;15.10;99.90;;;;;;5033653;28;20037;-78
2022/08/01 04:42:37;;;;;;;1999.90;692.92;;;15.20;99.90;;;;;;5027620;28;20262;-88
2022/08/01 04:45:03;;;;;;;1999.90;913.70;;;15.30;99.90;;;;;;5023595;28;20515;-79
2022/08/01 04:47:30;;;;;;;1999.90;834.92;;;15.40;99.90;;;;;;5040288;28;20037;-79
2022/08/01 04:49:56;;;;;;;1999.90;688.47;;;15.40;99.90;;;;;;5040931;28;20035;-78
2022/08/01 04:52:22;;;;;;;1999.90;693.50;;;15.50;99.90;;;;;;5040610;28;20021;-78
2022/08/01 04:54:48;;;;;;;1999.90;722.13;;;15.60;99.90;;;;;;5033753;28;20033;-84
2022/08/01 04:57:14;;;;;;;1999.90;629.95;;;15.60;99.90;;;;;;5039116;28;20036;-78
2022/08/01 04:59:43;;;;;;;1999.90;655.55;;;15.70;99.90;;;;;;5037877;28;20112;-79
2022/08/01 05:02:17;;;;;;;1999.90;739.55;;;15.80;99.90;;;;;;5021553;28;20394;-79
2022/08/01 05:04:44;;;;;;;1999.90;760.92;;;15.90;99.90;;;;;;5023592;28;20113;-84
2022/08/01 05:07:11;;;;;;;1999.90;839.17;;;15.90;99.80;;;;;;5025551;28;20092;-79
2022/08/01 05:09:38;;;;;;;1999.90;704.13;;;16.00;99.90;;;;;;5032982;28;20703;-79
2022/08/01 05:12:05;;;;;;;1999.90;729.85;;;16.10;99.50;;;;;;5020908;28;20064;-79
2022/08/01 05:14:32;;;;;;;1999.90;729.10;;;16.20;98.80;;;;;;5023077;28;20026;-81
2022/08/01 05:16:59;;;;;;;1999.90;643.15;;;16.30;99.00;;;;;;5027966;28;20117;-79
2022/08/01 05:19:26;;;;;;;1999.90;872.85;;;16.40;98.60;;;;;;5035095;28;20026;-78
2022/08/01 05:21:52;;;;;;;1999.90;783.67;;;16.50;97.70;;;;;;5035193;28;20031;-79
2022/08/01 05:24:17;;;;;;;1999.90;939.03;;;16.70;96.90;;;;;;5038898;28;20404;-79
2022/08/01 05:26:43;;;;;;;1999.90;768.85;;;16.70;96.20;;;;;;5032566;28;20126;-80
2022/08/01 05:29:08;;;;;;;1999.90;758.15;;;16.80;95.80;;;;;;5027137;28;20037;-82
2022/08/01 05:31:34;;;;;;;1999.90;917.20;;;16.90;96.00;;;;;;5019956;28;21076;-81
2022/08/01 05:34:03;;;;;;;1999.90;920.83;;;17.00;95.30;;;;;;5025868;28;20040;-79
2022/08/01 05:36:30;;;;;;;1999.90;915.70;;;17.10;95.70;;;;;;5026176;28;20441;-91
2022/08/01 05:38:56;;;;;;;1999.90;794.47;;;17.20;96.10;;;;;;5027087;28;20033;-82
2022/08/01 05:41:21;;;;;;;1999.90;806.88;;;17.30;95.70;;;;;;5031289;28;20468;-80
2022/08/01 05:43:47;;;;;;;1999.90;885.85;;;17.40;95.30;;;;;;5006466;28;20032;-79
2022/08/01 05:46:13;;;;;;;1999.90;809.33;;;17.50;94.70;;;;;;5031881;28;20029;-80
2022/08/01 05:48:38;;;;;;;1999.90;828.92;;;17.60;95.20;;;;;;5040933;28;20037;-79
2022/08/01 05:51:05;;;;;;;1999.90;805.55;;;17.70;94.60;;;;;;5030421;28;20040;-83
2022/08/01 05:53:34;;;;;;;1999.90;873.67;;;17.80;94.60;;;;;;5015520;28;20045;-79
2022/08/01 05:56:00;;;;;;;1999.90;797.25;;;18.00;94.80;;;;;;5069493;28;20025;-79
2022/08/01 05:58:26;;;;;;;1999.90;852.80;;;18.10;94.10;;;;;;5036640;28;20482;-80
2022/08/01 06:00:51;;;;;;;1999.90;933.22;;;18.20;94.30;;;;;;5026652;28;20580;-79
2022/08/01 06:03:17;;;;;;;1999.90;891.95;;;18.30;93.00;;;;;;5030612;28;20100;-80
2022/08/01 06:05:42;;;;;;;1999.90;954.88;;;18.40;93.00;;;;;;5035626;28;20519;-79
2022/08/01 06:08:08;;;;;;;1999.90;946.67;;;18.50;93.00;;;;;;5018227;28;20528;-81
2022/08/01 06:10:33;;;;;;;1999.90;953.78;;;18.60;92.50;;;;;;5019098;28;20033;-81
2022/08/01 06:13:02;;;;;;;1999.90;999.25;;;18.70;93.50;;;;;;5038003;28;20033;-80
2022/08/01 06:15:29;;;;;;;1999.90;952.75;;;18.80;90.70;;;;;;5037992;28;20021;-81
2022/08/01 06:17:55;;;;;;;1999.90;999.90;;;19.00;91.40;;;;;;5048232;28;20484;-80
2022/08/01 06:20:20;;;;;;;1999.90;996.53;;;19.10;90.30;;;;;;5048431;28;20041;-80
2022/08/01 06:22:46;;;;;;;1999.90;990.22;;;19.20;91.00;;;;;;5044805;28;20045;-80
2022/08/01 06:25:12;;;;;;;1999.90;999.90;;;19.30;89.10;;;;;;5040230;28;20039;-82
2022/08/01 06:27:37;;;;;;;1999.90;999.90;;;19.40;88.10;;;;;;5038857;28;20511;-81
2022/08/01 06:30:05;;;;;;;1999.90;991.03;;;19.50;87.30;;;;;;5027164;28;20041;-80
2022/08/01 06:32:31;;;;;;;1999.90;999.90;;;19.60;87.60;;;;;;5036307;28;20093;-79
2022/08/01 06:34:56;;;;;;;1999.90;999.90;;;19.70;85.80;;;;;;5032567;28;20076;-79
2022/08/01 06:37:23;;;;;;;1999.90;960.90;;;19.90;84.80;;;;;;5038379;28;20470;-81
2022/08/01 06:39:49;;;;;;;1999.90;999.90;;;20.00;85.70;;;;;;5031982;28;20033;-80
2022/08/01 06:42:15;;;;;;;1999.90;999.90;;;20.10;82.70;;;;;;5036864;28;20104;-79
2022/08/01 06:44:41;;;;;;;1999.90;999.90;;;20.10;79.60;;;;;;5033671;28;20484;-79
2022/08/01 06:47:06;;;;;;;1999.90;999.90;;;20.00;80.00;;;;;;5030644;28;20098;-80
2022/08/01 06:49:32;;;;;;;1975.20;972.17;;;20.00;81.00;;;;;;5044579;28;20033;-82
2022/08/01 06:51:58;;;;;;;1999.90;999.90;;;20.00;76.30;;;;;;5036897;28;20025;-79
2022/08/01 06:54:23;;;;;;;1999.90;999.90;;;20.10;79.70;;;;;;5041970;28;20036;-79
2022/08/01 06:56:49;;;;;;;1999.90;999.90;;;20.30;76.10;;;;;;5028246;28;20044;-87
2022/08/01 06:59:15;;;;;;;1999.90;999.90;;;20.50;76.40;;;;;;5021507;28;20411;-81
2022/08/01 07:01:40;;;;;;;1999.90;999.90;;;20.60;76.30;;;;;;5037451;28;20485;-84
2022/08/01 07:04:06;;;;;;;1999.90;999.90;;;20.80;76.20;;;;;;5036572;28;20037;-85
2022/08/01 07:06:32;;;;;;;1999.90;999.90;;;21.00;75.30;;;;;;5037348;28;20064;-79
2022/08/01 07:08:58;;;;;;;517.55;489.83;;;21.10;73.10;;;;;;5010801;28;20036;-79
2022/08/01 07:11:24;;;;;;;976.80;837.33;;;21.20;72.40;;;;;;5027497;28;20112;-79
2022/08/01 07:13:49;;;;;;;1999.90;999.90;;;21.20;73.00;;;;;;5026666;28;20500;-80
2022/08/01 07:16:16;;;;;;;1850.78;998.88;;;21.30;75.40;;;;;;5034691;28;20540;-79
2022/08/01 07:18:42;;;;;;;1984.65;999.90;;;21.50;72.30;;;;;;5040375;28;20064;-79
2022/08/01 07:21:08;;;;;;;1980.20;999.90;;;21.50;72.90;;;;;;5036507;28;20061;-79
2022/08/01 07:23:34;;;;;;;1999.90;999.90;;;21.60;72.50;;;;;;5040603;28;20096;-79
2022/08/01 07:26:01;;;;;;;1995.03;999.90;;;21.60;72.10;;;;;;5036622;28;20028;-79
2022/08/01 07:28:27;;;;;;;1999.90;999.90;;;21.80;70.80;;;;;;5021654;28;20041;-81
2022/08/01 07:30:53;;;;;;;1999.90;999.90;;;21.90;72.90;;;;;;5037715;28;20489;-79
2022/08/01 07:33:19;;;;;;;1999.90;999.90;;;21.80;74.40;;;;;;5035058;28;20083;-79
2022/08/01 07:35:45;;;;;;;1999.90;999.90;;;22.00;75.80;;;;;;5034777;28;20033;-79
2022/08/01 07:38:10;;;;;;;1999.90;999.90;;;22.20;73.90;;;;;;5030293;28;20397;-79
2022/08/01 07:40:36;;;;;;;1999.90;999.90;;;22.30;70.40;;;;;;5030192;28;20517;-79
2022/08/01 07:43:02;;;;;;;1999.90;999.90;;;22.30;73.10;;;;;;5031777;28;20022;-79
2022/08/01 07:45:27;;;;;;;1999.90;999.90;;;22.40;72.50;;;;;;5033417;28;20056;-79
2022/08/01 07:47:53;;;;;;;1999.90;999.90;;;22.40;68.50;;;;;;5046123;28;20366;-79
2022/08/01 07:50:19;;;;;;;1999.90;999.90;;;22.60;67.10;;;;;;5038210;28;20373;-74
2022/08/01 07:52:44;;;;;;;1937.47;999.90;;;22.70;69.40;;;;;;5035090;28;20519;-73
2022/08/01 07:55:12;;;;;;;1999.90;999.90;;;22.70;66.60;;;;;;5037405;28;20037;-76
2022/08/01 07:57:37;;;;;;;1999.90;999.90;;;22.80;72.10;;;;;;5035040;28;20416;-77
2022/08/01 08:00:24;;;;;;;1999.90;999.90;;;22.90;68.70;;;;;;5031223;28;20544;-76
2022/08/01 08:02:50;;;;;;;1999.90;999.90;;;22.80;68.30;;;;;;5002769;28;20038;-77
2022/08/01 08:05:15;;;;;;;1962.43;903.47;;;23.00;67.00;;;;;;5007832;28;20037;-77
2022/08/01 08:07:41;;;;;;;1749.90;810.90;;;23.10;62.20;;;;;;5006326;28;20064;-76
2022/08/01 08:10:07;;;;;;;1999.90;942.28;;;23.10;64.10;;;;;;4991702;28;20421;-77
2022/08/01 08:12:33;;;;;;;1708.28;887.67;;;23.00;64.50;;;;;;5007658;28;20034;-77
2022/08/01 08:15:00;;;;;;;1689.53;834.00;;;23.20;62.70;;;;;;5008589;28;20026;-77
2022/08/01 08:17:26;;;;;;;1999.90;894.45;;;23.30;62.40;;;;;;5007779;28;20045;-77
2022/08/01 08:19:51;;;;;;;1999.90;966.25;;;23.30;60.00;;;;;;5008874;28;20038;-76
2022/08/01 08:22:17;;;;;;;1999.90;893.33;;;23.30;60.90;;;;;;5007915;28;20037;-76
2022/08/01 08:24:43;;;;;;;1622.03;877.60;;;23.40;61.70;;;;;;4989533;28;20137;-77
2022/08/01 08:27:09;;;;;;;1999.90;977.65;;;23.70;61.60;;;;;;4991307;28;20361;-77
2022/08/01 08:29:35;;;;;;;1992.03;901.35;;;23.40;60.50;;;;;;5008695;28;20544;-75
2022/08/01 08:32:01;;;;;;;1999.90;940.22;;;23.00;60.70;;;;;;5007306;28;20042;-76
2022/08/01 08:34:27;;;;;;;1999.90;927.15;;;23.10;60.00;;;;;;5001584;28;20097;-78
2022/08/01 08:36:55;;;;;;;1999.90;829.85;;;23.30;61.20;;;;;;5000334;28;20497;-76
2022/08/01 08:39:20;;;;;;;1999.90;888.55;;;23.80;60.00;;;;;;5006730;28;20022;-76
2022/08/01 08:41:47;;;;;;;1999.90;850.20;;;24.20;56.70;;;;;;5004876;28;20485;-76
2022/08/01 08:44:13;;;;;;;1999.90;826.58;;;24.10;59.80;;;;;;5005559;28;20034;-76
2022/08/01 08:46:44;;;;;;;1999.90;930.47;;;23.70;61.00;;;;;;5007653;28;20462;-77
2022/08/01 08:49:12;;;;;;;1999.90;858.55;;;23.50;60.60;;;;;;5007320;28;20034;-76
2022/08/01 08:51:39;;;;;;;1578.75;863.55;;;24.00;62.70;;;;;;5007199;28;20711;-77
2022/08/01 08:54:06;;;;;;;1906.63;865.65;;;24.40;56.90;;;;;;5007688;28;20133;-77
2022/08/01 08:56:34;;;;;;;1999.90;919.08;;;24.80;55.50;;;;;;5003292;28;20030;-77
2022/08/01 08:59:02;;;;;;;1999.90;886.72;;;24.80;58.10;;;;;;5005831;28;20033;-76
2022/08/01 09:01:27;;;;;;;1815.60;835.58;;;24.50;54.70;;;;;;5007112;28;20724;-76
2022/08/01 09:03:53;;;;;;;777.47;696.65;;;25.00;55.20;;;;;;5011639;28;20042;-76
2022/08/01 09:06:19;;;;;;;1953.40;896.10;;;24.80;54.20;;;;;;5011899;28;20030;-77
2022/08/01 09:08:45;;;;;;;1999.25;868.95;;;24.60;55.50;;;;;;5010558;28;20022;-78
2022/08/01 09:11:11;;;;;;;1999.90;946.55;;;24.80;55.70;;;;;;5012371;28;20375;-76
2022/08/01 09:13:37;;;;;;;1778.65;795.40;;;24.70;55.30;;;;;;5011805;28;20393;-77
2022/08/01 09:16:05;;;;;;;1999.90;880.22;;;25.00;52.60;;;;;;5007335;28;20034;-76
2022/08/01 09:18:48;;;;;;;1989.75;867.42;;;25.00;54.40;;;;;;5020916;28;20040;-76
2022/08/01 09:21:19;;;;;;;1906.70;897.95;;;25.70;55.50;;;;;;5016802;28;20033;-76
2022/08/01 09:23:52;;;;;;;1999.90;853.95;;;25.80;51.20;;;;;;5020586;28;20068;-76
2022/08/01 09:26:30;;;;;;;1649.68;900.22;;;26.10;57.90;;;;;;5011169;28;20059;-75
2022/08/01 09:28:56;;;;;;;1129.15;774.20;;;26.00;53.80;;;;;;5014642;28;20482;-76
2022/08/01 09:31:21;;;;;;;1344.03;891.58;;;26.20;48.10;;;;;;5015642;28;20057;-76
2022/08/01 09:33:55;;;;;;;899.92;811.97;;;26.30;46.90;;;;;;5009556;28;20044;-76
2022/08/01 09:36:23;;;;;;;1999.90;906.38;;;26.20;47.10;;;;;;5003838;28;20096;-75
2022/08/01 09:38:50;;;;;;;1871.45;810.95;;;25.90;48.90;;;;;;5009016;28;20045;-75
2022/08/01 09:41:17;;;;;;;1652.05;785.90;;;26.50;48.60;;;;;;5008817;28;20040;-76
2022/08/01 09:43:50;;;;;;;1558.22;800.50;;;26.80;49.60;;;;;;5004855;28;20061;-76
2022/08/01 09:46:16;;;;;;;1934.60;958.63;;;26.80;50.70;;;;;;5024544;28;20025;-77
2022/08/01 09:48:59;;;;;;;1743.13;744.13;;;27.20;48.30;;;;;;5019149;28;20036;-76
2022/08/01 09:51:37;;;;;;;1933.93;938.72;;;27.00;48.70;;;;;;5020023;28;20026;-76
2022/08/01 09:54:05;;;;;;;1999.90;884.40;;;27.00;48.40;;;;;;4997202;28;20389;-77
2022/08/01 09:56:43;;;;;;;1209.45;778.40;;;27.30;50.50;;;;;;5018409;28;20026;-75
2022/08/01 09:59:09;;;;;;;1998.80;755.20;;;27.20;46.00;;;;;;5013225;28;20040;-75
2022/08/01 10:01:46;;;;;;;1999.90;882.13;;;26.40;47.40;;;;;;5008744;28;20028;-76
2022/08/01 10:04:17;;;;;;;1999.90;821.10;;;26.60;55.60;;;;;;5003252;28;20034;-75
2022/08/01 10:06:49;;;;;;;1088.75;690.65;;;27.20;47.40;;;;;;5010666;28;20026;-76
2022/08/01 10:09:15;;;;;;;1999.90;999.90;;;27.10;48.80;;;;;;5003969;28;20160;-75
2022/08/01 10:11:44;;;;;;;1999.90;607.75;;;27.30;51.50;;;;;;5003776;28;20034;-76
2022/08/01 10:14:12;;;;;;;1942.90;951.45;;;27.40;48.00;;;;;;5013356;28;20033;-75
2022/08/01 10:16:38;;;;;;;941.60;819.72;;;28.10;46.10;;;;;;5007656;28;20037;-76
2022/08/01 10:19:06;;;;;;;1999.90;948.30;;;28.70;43.60;;;;;;5015437;28;20045;-75
2022/08/01 10:21:34;;;;;;;1999.90;850.80;;;28.20;44.20;;;;;;5019044;28;20029;-76
2022/08/01 10:24:01;;;;;;;821.33;693.10;;;27.90;43.70;;;;;;5019655;28;20025;-77
2022/08/01 10:26:29;;;;;;;1491.15;868.50;;;27.90;44.40;;;;;;5018394;28;20049;-82
2022/08/01 10:28:55;;;;;;;1094.40;724.03;;;28.30;41.60;;;;;;5016139;28;20030;-77
2022/08/01 10:31:20;;;;;;;1620.95;846.60;;;28.40;39.90;;;;;;5013873;28;20044;-75
2022/08/01 10:33:47;;;;;;;1889.03;896.80;;;28.30;44.50;;;;;;5004708;28;20026;-74
2022/08/01 10:36:13;;;;;;;999.72;653.78;;;28.50;40.90;;;;;;5015165;28;20044;-75
2022/08/01 10:38:40;;;;;;;721.13;608.03;;;28.30;37.00;;;;;;5006821;28;20041;-74
2022/08/01 10:41:06;;;;;;;814.13;741.55;;;28.70;39.20;;;;;;5009516;28;20045;-76
2022/08/01 10:43:32;;;;;;;1263.18;809.42;;;27.80;38.50;;;;;;5013080;28;20393;-75
2022/08/01 10:45:58;;;;;;;859.78;763.53;;;27.90;41.30;;;;;;5025175;28;20077;-75
2022/08/01 10:48:43;;;;;;;945.72;869.55;;;27.50;39.50;;;;;;5025889;28;20104;-74
2022/08/01 10:51:09;;;;;;;1551.65;860.90;;;27.30;39.90;;;;;;5024111;28;20040;-75
2022/08/01 10:53:34;;;;;;;866.63;793.25;;;27.30;44.40;;;;;;5018807;28;20037;-74
2022/08/01 10:56:02;;;;;;;1143.70;844.15;;;27.30;40.70;;;;;;5003193;28;20485;-74
2022/08/01 10:58:37;;;;;;;935.53;845.33;;;27.10;41.30;;;;;;5005621;28;20133;-74
2022/08/01 11:01:26;;;;;;;1758.22;893.65;;;27.10;40.40;;;;;;5009662;28;20053;-76
2022/08/01 11:04:05;;;;;;;1999.90;866.45;;;27.70;41.70;;;;;;4999651;28;20391;-74
2022/08/01 11:06:34;;;;;;;688.47;646.22;;;27.90;43.20;;;;;;5005014;28;20029;-75
2022/08/01 11:09:15;;;;;;;972.10;855.45;;;28.70;37.70;;;;;;5002343;28;20120;-74
2022/08/01 11:12:18;;;;;;;784.30;729.47;;;28.00;40.40;;;;;;5038780;28;20034;-74
2022/08/01 11:14:59;;;;;;;849.22;744.38;;;27.50;40.00;;;;;;5010265;28;20084;-75
2022/08/01 11:17:48;;;;;;;1718.05;923.03;;;27.10;44.50;;;;;;5012787;28;20051;-76
2022/08/01 11:20:19;;;;;;;1294.13;845.30;;;26.30;47.00;;;;;;5024202;28;20032;-75
2022/08/01 11:23:00;;;;;;;1245.10;885.28;;;26.20;44.00;;;;;;5024735;28;20030;-75
2022/08/01 11:25:47;;;;;;;1125.10;860.25;;;26.40;44.40;;;;;;4998875;28;20037;-75
2022/08/01 11:28:16;;;;;;;1000.13;833.72;;;26.50;43.70;;;;;;4997065;28;20049;-75
2022/08/01 11:30:44;;;;;;;1105.55;891.28;;;26.70;44.80;;;;;;5008836;28;20037;-80
2022/08/01 11:33:12;;;;;;;1159.07;884.50;;;26.60;42.80;;;;;;5007146;28;20477;-75
2022/08/01 11:35:58;;;;;;;1868.25;890.63;;;27.40;43.60;;;;;;5007098;28;20130;-76
2022/08/01 11:38:29;;;;;;;591.72;557.30;;;27.70;41.90;;;;;;5008911;28;20061;-79
2022/08/01 11:41:32;;;;;;;482.83;459.75;;;29.90;38.90;;;;;;4998399;28;20341;-78
2022/08/01 11:44:04;;;;;;;702.47;662.33;;;31.40;33.50;;;;;;5007364;28;20046;-76
2022/08/01 11:46:54;;;;;;;737.92;669.72;;;31.30;35.30;;;;;;5010737;28;20302;-76
2022/08/01 11:49:25;;;;;;;382.95;365.70;;;31.50;33.40;;;;;;5019140;28;20036;-75
2022/08/01 11:52:24;;;;;;;359.25;343.20;;;31.80;31.00;;;;;;5020871;28;20067;-76
2022/08/01 11:54:56;;;;;;;185.75;178.15;;;32.10;32.60;;;;;;5001862;28;20026;-77
2022/08/01 11:57:30;;;;;;;397.50;379.52;;;32.20;29.90;;;;;;5030241;28;20054;-76
2022/08/01 11:59:58;;;;;;;655.55;614.08;;;33.00;30.30;;;;;;5004976;28;20033;-77
2022/08/01 12:02:32;;;;;;;534.25;503.88;;;32.70;28.70;;;;;;5012457;28;20426;-76
2022/08/01 12:04:58;;;;;;;852.97;785.10;;;32.80;28.00;;;;;;5005362;28;20041;-76
2022/08/01 12:07:27;;;;;;;786.05;733.38;;;31.40;33.40;;;;;;5004167;28;20042;-78
2022/08/01 12:10:12;;;;;;;776.83;713.75;;;31.50;29.80;;;;;;5002298;28;20034;-77